createdAt,value
2022-12-14T00:00:58.034Z,2.1
2022-12-14T00:02:07.741Z,2.7
2022-12-14T00:03:17.403Z,3
2022-12-14T00:04:24.980Z,2.8
2022-12-14T00:05:34.645Z,2.5
2022-12-14T00:06:44.338Z,2.7
2022-12-14T00:07:52.985Z,2.2
2022-12-14T00:09:02.637Z,2.6
2022-12-14T00:10:10.312Z,2
2022-12-14T00:11:19.972Z,2.2
2022-12-14T00:12:28.625Z,2.1
2022-12-14T00:13:37.274Z,2.8
2022-12-14T00:14:46.954Z,2.3
2022-12-14T00:15:55.654Z,1.9
2022-12-14T00:17:04.270Z,2.4
2022-12-14T00:18:16.719Z,2.3
2022-12-14T00:19:23.608Z,3
2022-12-14T00:20:33.270Z,2.6
2022-12-14T00:21:41.910Z,3.1
2022-12-14T00:22:50.562Z,2.4
2022-12-14T00:24:00.278Z,2.4
2022-12-14T00:25:08.927Z,2.1
2022-12-14T00:26:17.628Z,2.6
2022-12-14T00:27:27.250Z,2
2022-12-14T00:28:36.928Z,2.8
2022-12-14T00:29:46.623Z,2.8
2022-12-14T00:30:58.302Z,2.4
2022-12-14T00:32:05.916Z,2.3
2022-12-14T00:33:15.576Z,2.4
2022-12-14T00:34:24.232Z,2.1
2022-12-14T00:35:32.931Z,2.2
2022-12-14T00:36:42.593Z,2.2
2022-12-14T00:37:52.240Z,2.7
2022-12-14T00:39:01.911Z,2.3
2022-12-14T00:40:10.566Z,2.4
2022-12-14T00:41:19.247Z,2.7
2022-12-14T00:42:28.935Z,2.1
2022-12-14T00:43:37.564Z,2.6
2022-12-14T00:44:47.217Z,2
2022-12-14T00:45:56.983Z,2.8
2022-12-14T00:47:04.551Z,2.7
2022-12-14T00:48:14.206Z,2.1
2022-12-14T00:49:22.852Z,2.8
2022-12-14T00:50:30.501Z,3
2022-12-14T00:51:40.152Z,2
2022-12-14T00:52:47.822Z,2.3
2022-12-14T00:53:56.477Z,2.8
2022-12-14T00:55:06.130Z,2.8
2022-12-14T00:56:14.773Z,2.3
2022-12-14T00:57:24.428Z,2.7
2022-12-14T00:58:34.128Z,3.3
2022-12-14T00:59:42.754Z,2.2
2022-12-14T01:00:52.409Z,2.2
2022-12-14T01:02:01.183Z,2.2
2022-12-14T01:03:10.769Z,2.9
2022-12-14T01:04:20.445Z,2.8
2022-12-14T01:05:29.072Z,3.1
2022-12-14T01:06:37.725Z,2.6
2022-12-14T01:07:48.795Z,2.4
2022-12-14T01:08:55.102Z,3
2022-12-14T01:10:04.808Z,3.4
2022-12-14T01:11:14.484Z,2.9
2022-12-14T01:12:23.139Z,3.5
2022-12-14T01:13:32.813Z,2.7
2022-12-14T01:14:40.482Z,2.6
2022-12-14T01:15:50.168Z,2.7
2022-12-14T01:16:59.796Z,2.7
2022-12-14T01:18:07.449Z,2.1
2022-12-14T01:19:17.110Z,2.9
2022-12-14T01:20:25.761Z,2.3
2022-12-14T01:21:35.441Z,2.7
2022-12-14T01:22:45.113Z,2.8
2022-12-14T01:23:53.760Z,2.5
2022-12-14T01:25:03.471Z,2.6
2022-12-14T01:26:11.119Z,2
2022-12-14T01:27:19.812Z,2.5
2022-12-14T01:28:29.487Z,2
2022-12-14T01:29:38.136Z,2.6
2022-12-14T01:30:46.818Z,1.8
2022-12-14T01:31:56.458Z,2.5
2022-12-14T01:33:04.129Z,1.9
2022-12-14T01:34:13.796Z,2.1
2022-12-14T01:35:22.445Z,2.6
2022-12-14T01:36:31.112Z,2.3
2022-12-14T01:37:40.770Z,2.1
2022-12-14T01:38:49.452Z,2.2
2022-12-14T01:39:58.102Z,1.9
2022-12-14T01:41:07.755Z,1.7
2022-12-14T01:42:16.433Z,2.1
2022-12-14T01:43:26.330Z,2.6
2022-12-14T01:44:34.779Z,1.9
2022-12-14T01:45:42.425Z,2.4
2022-12-14T01:46:52.182Z,2.4
2022-12-14T01:48:00.756Z,2.5
2022-12-14T01:49:10.409Z,2.4
2022-12-14T01:50:20.114Z,1.9
2022-12-14T01:51:29.782Z,2.8
2022-12-14T01:52:39.439Z,2.6
2022-12-14T01:53:48.091Z,2.4
2022-12-14T01:54:57.751Z,2.1
2022-12-14T01:56:06.429Z,2.3
2022-12-14T01:57:15.072Z,2.3
2022-12-14T01:58:24.727Z,2.3
2022-12-14T01:59:33.397Z,2.1
2022-12-14T02:00:43.059Z,2.3
2022-12-14T02:01:52.859Z,2.8
2022-12-14T02:03:00.544Z,2.3
2022-12-14T02:04:10.073Z,2.5
2022-12-14T02:05:20.729Z,2.8
2022-12-14T02:06:28.379Z,2.8
2022-12-14T02:07:38.068Z,2.3
2022-12-14T02:08:46.726Z,2.4
2022-12-14T02:09:55.378Z,2.2
2022-12-14T02:11:05.026Z,2.2
2022-12-14T02:12:14.690Z,2
2022-12-14T02:13:24.634Z,2.7
2022-12-14T02:14:34.023Z,2.3
2022-12-14T02:15:42.676Z,2.5
2022-12-14T02:16:52.340Z,2.8
2022-12-14T02:18:00.993Z,3.2
2022-12-14T02:19:09.700Z,2.9
2022-12-14T02:20:18.334Z,2.9
2022-12-14T02:21:27.003Z,2.9
2022-12-14T02:22:36.658Z,2.8
2022-12-14T02:23:45.319Z,2.9
2022-12-14T02:24:54.037Z,2.7
2022-12-14T02:26:03.704Z,2.4
2022-12-14T02:27:11.373Z,2.5
2022-12-14T02:28:21.054Z,3.1
2022-12-14T02:29:30.752Z,2.1
2022-12-14T02:30:38.468Z,2.3
2022-12-14T02:31:48.836Z,2.2
2022-12-14T02:32:55.808Z,1.7
2022-12-14T02:34:04.500Z,1.8
2022-12-14T02:35:14.293Z,3.1
2022-12-14T02:36:22.432Z,1.9
2022-12-14T02:37:32.098Z,1.9
2022-12-14T02:38:41.761Z,2.2
2022-12-14T02:39:50.426Z,2.2
2022-12-14T02:41:00.092Z,2.8
2022-12-14T02:42:08.770Z,2.3
2022-12-14T02:43:15.421Z,2.3
2022-12-14T02:44:25.082Z,2.3
2022-12-14T02:45:33.741Z,3.5
2022-12-14T02:46:47.415Z,2.9
2022-12-14T02:47:54.111Z,3.1
2022-12-14T02:49:02.777Z,2.5
2022-12-14T02:50:12.452Z,3.3
2022-12-14T02:51:21.126Z,2.1
2022-12-14T02:52:30.771Z,2
2022-12-14T02:53:40.463Z,2
2022-12-14T02:54:50.139Z,2.2
2022-12-14T02:55:58.796Z,2.2
2022-12-14T02:57:08.449Z,3.1
2022-12-14T02:58:16.115Z,3.6
2022-12-14T02:59:25.806Z,4.2
2022-12-14T03:00:34.495Z,5
2022-12-14T03:01:42.276Z,5.2
2022-12-14T03:02:52.823Z,4.3
2022-12-14T03:04:02.438Z,3.3
2022-12-14T03:05:11.136Z,2.7
2022-12-14T03:06:20.870Z,2.7
2022-12-14T03:07:29.549Z,2.8
2022-12-14T03:08:39.210Z,2.9
2022-12-14T03:09:47.898Z,2.4
2022-12-14T03:10:56.604Z,2.3
2022-12-14T03:12:06.257Z,1.7
2022-12-14T03:13:13.941Z,1.7
2022-12-14T03:14:22.604Z,2
2022-12-14T03:15:32.259Z,2.4
2022-12-14T03:16:42.067Z,2.6
2022-12-14T03:17:51.626Z,1.8
2022-12-14T03:19:01.406Z,2.2
2022-12-14T03:20:11.096Z,1.9
2022-12-14T03:21:20.765Z,1.9
2022-12-14T03:22:29.459Z,1.9
2022-12-14T03:23:38.147Z,2.1
2022-12-14T03:24:47.794Z,2.2
2022-12-14T03:25:56.445Z,2.4
2022-12-14T03:27:06.125Z,2.4
2022-12-14T03:28:15.834Z,1.8
2022-12-14T03:29:25.486Z,2.5
2022-12-14T03:30:58.584Z,3.2
2022-12-14T03:31:44.794Z,2.9
2022-12-14T03:32:55.421Z,2.4
2022-12-14T03:34:05.139Z,2.2
2022-12-14T03:35:14.807Z,2.6
2022-12-14T03:36:24.491Z,1.7
2022-12-14T03:37:34.138Z,1.9
2022-12-14T03:38:42.853Z,2.9
2022-12-14T03:39:52.498Z,2.3
2022-12-14T03:41:02.170Z,2.1
2022-12-14T03:42:10.829Z,2.4
2022-12-14T03:43:20.491Z,2.4
2022-12-14T03:44:28.155Z,2.2
2022-12-14T03:45:37.863Z,2.3
2022-12-14T03:46:46.486Z,2.4
2022-12-14T03:47:55.159Z,2.5
2022-12-14T03:49:04.836Z,2.8
2022-12-14T03:50:12.501Z,2.8
2022-12-14T03:51:22.181Z,1.8
2022-12-14T03:52:29.843Z,2.6
2022-12-14T03:53:39.501Z,2.1
2022-12-14T03:54:49.195Z,2.5
2022-12-14T03:55:57.839Z,2.1
2022-12-14T03:57:07.510Z,2.5
2022-12-14T03:58:16.156Z,2.7
2022-12-14T03:59:24.828Z,3.1
2022-12-14T04:00:33.502Z,3.4
2022-12-14T04:01:41.246Z,4.1
2022-12-14T04:02:49.927Z,4.5
2022-12-14T04:03:59.512Z,3.3
2022-12-14T04:05:08.185Z,2.2
2022-12-14T04:06:17.840Z,1.7
2022-12-14T04:07:26.500Z,1.9
2022-12-14T04:08:34.181Z,1.9
2022-12-14T04:09:43.851Z,2.2
2022-12-14T04:10:51.534Z,2.2
2022-12-14T04:12:00.174Z,1.9
2022-12-14T04:13:09.838Z,2.5
2022-12-14T04:14:17.545Z,2.2
2022-12-14T04:15:27.201Z,2
2022-12-14T04:16:35.945Z,1.8
2022-12-14T04:17:43.514Z,2.1
2022-12-14T04:18:59.214Z,2
2022-12-14T04:20:01.866Z,2.2
2022-12-14T04:21:10.521Z,2.4
2022-12-14T04:22:20.181Z,2.5
2022-12-14T04:23:29.999Z,2.6
2022-12-14T04:24:37.500Z,2.4
2022-12-14T04:25:47.173Z,2.4
2022-12-14T04:26:55.842Z,2.1
2022-12-14T04:28:05.474Z,2.2
2022-12-14T04:29:14.158Z,1.9
2022-12-14T04:30:22.835Z,2
2022-12-14T04:31:32.568Z,2.4
2022-12-14T04:32:41.169Z,2.2
2022-12-14T04:33:50.824Z,2.8
2022-12-14T04:35:00.500Z,2.6
2022-12-14T04:36:08.161Z,2
2022-12-14T04:37:17.875Z,2.4
2022-12-14T04:38:25.546Z,2.9
2022-12-14T04:39:34.262Z,2.2
2022-12-14T04:40:43.932Z,2.1
2022-12-14T04:41:51.587Z,1.8
2022-12-14T04:43:01.405Z,2.3
2022-12-14T04:44:11.046Z,2.5
2022-12-14T04:45:20.702Z,2.3
2022-12-14T04:46:30.378Z,1.8
2022-12-14T04:47:39.039Z,2.6
2022-12-14T04:48:47.733Z,2
2022-12-14T04:49:57.403Z,2
2022-12-14T04:51:07.064Z,2.2
2022-12-14T04:52:15.738Z,2.6
2022-12-14T04:53:25.730Z,2.7
2022-12-14T04:54:33.135Z,2.8
2022-12-14T04:55:42.806Z,2.6
2022-12-14T04:56:50.460Z,2.3
2022-12-14T04:57:59.121Z,3.4
2022-12-14T04:59:08.793Z,2.2
2022-12-14T05:00:17.442Z,3.1
2022-12-14T05:01:27.265Z,2.1
2022-12-14T05:02:36.892Z,1.9
2022-12-14T05:03:47.426Z,1.9
2022-12-14T05:04:57.091Z,2
2022-12-14T05:06:05.791Z,1.8
2022-12-14T05:07:14.441Z,2.9
2022-12-14T05:08:24.085Z,2.5
2022-12-14T05:09:31.769Z,2.3
2022-12-14T05:10:41.435Z,2.2
2022-12-14T05:11:53.926Z,2.7
2022-12-14T05:12:59.776Z,1.9
2022-12-14T05:14:10.434Z,2.5
2022-12-14T05:15:18.110Z,2.3
2022-12-14T05:16:26.781Z,2.3
2022-12-14T05:17:36.421Z,2.3
2022-12-14T05:18:44.065Z,1.9
2022-12-14T05:19:53.740Z,1.7
2022-12-14T05:21:02.403Z,2
2022-12-14T05:22:11.081Z,2.4
2022-12-14T05:23:20.793Z,2.4
2022-12-14T05:24:29.448Z,2.3
2022-12-14T05:25:39.105Z,2.5
2022-12-14T05:26:48.779Z,2.8
2022-12-14T05:27:58.463Z,2
2022-12-14T05:29:08.166Z,2.2
2022-12-14T05:30:17.849Z,2.3
2022-12-14T05:31:25.552Z,2.3
2022-12-14T05:32:35.223Z,2.4
2022-12-14T05:33:43.872Z,1.7
2022-12-14T05:34:53.548Z,2.2
2022-12-14T05:36:02.200Z,2.2
2022-12-14T05:37:17.877Z,1.9
2022-12-14T05:38:22.549Z,2
2022-12-14T05:39:31.218Z,1.9
2022-12-14T05:40:38.996Z,2
2022-12-14T05:41:48.638Z,2
2022-12-14T05:42:58.293Z,2.1
2022-12-14T05:44:07.974Z,2.1
2022-12-14T05:45:15.624Z,3.1
2022-12-14T05:46:25.328Z,1.9
2022-12-14T05:47:33.003Z,2.1
2022-12-14T05:48:42.697Z,2.2
2022-12-14T05:49:51.266Z,2.4
2022-12-14T05:50:59.948Z,2.3
2022-12-14T05:52:07.735Z,2.5
2022-12-14T05:53:17.426Z,2.8
2022-12-14T05:54:26.083Z,1.8
2022-12-14T05:55:34.738Z,3.1
2022-12-14T05:56:44.406Z,2.4
2022-12-14T05:57:52.085Z,2.4
2022-12-14T05:59:01.764Z,2.3
2022-12-14T06:00:10.407Z,2.8
2022-12-14T06:01:20.209Z,2.9
2022-12-14T06:02:29.778Z,2.4
2022-12-14T06:03:37.413Z,2.7
2022-12-14T06:04:46.157Z,2.3
2022-12-14T06:05:55.745Z,2.3
2022-12-14T06:07:04.420Z,2.6
2022-12-14T06:08:14.080Z,2.5
2022-12-14T06:09:21.742Z,3.4
2022-12-14T06:10:29.396Z,2.2
2022-12-14T06:11:39.081Z,2.3
2022-12-14T06:12:46.735Z,2.6
2022-12-14T06:13:56.391Z,2.7
2022-12-14T06:15:06.076Z,2.8
2022-12-14T06:16:14.861Z,2.9
2022-12-14T06:17:24.411Z,2.6
2022-12-14T06:18:34.090Z,2.6
2022-12-14T06:19:42.789Z,2.8
2022-12-14T06:20:53.472Z,2.4
2022-12-14T06:22:02.149Z,2.9
2022-12-14T06:23:10.820Z,2.7
2022-12-14T06:24:19.480Z,2.6
2022-12-14T06:25:27.136Z,2.7
2022-12-14T06:26:36.840Z,3.5
2022-12-14T06:27:45.484Z,2.3
2022-12-14T06:28:54.134Z,2.2
2022-12-14T06:30:03.798Z,2.6
2022-12-14T06:31:11.457Z,3.5
2022-12-14T06:32:20.267Z,2.4
2022-12-14T06:33:30.229Z,2.6
2022-12-14T06:34:42.216Z,3
2022-12-14T06:35:50.176Z,3.6
2022-12-14T06:36:58.840Z,2.6
2022-12-14T06:38:07.534Z,3
2022-12-14T06:39:17.208Z,2.8
2022-12-14T06:40:25.872Z,2.3
2022-12-14T06:41:34.530Z,3.2
2022-12-14T06:42:44.207Z,2.8
2022-12-14T06:43:53.913Z,2.2
2022-12-14T06:45:03.587Z,2.7
2022-12-14T06:46:15.635Z,2.4
2022-12-14T06:47:22.906Z,2.7
2022-12-14T06:48:32.633Z,3
2022-12-14T06:49:42.319Z,3
2022-12-14T06:50:51.002Z,2.4
2022-12-14T06:52:00.737Z,2.8
2022-12-14T06:53:09.391Z,2.8
2022-12-14T06:54:19.085Z,3.3
2022-12-14T06:55:28.955Z,2.4
2022-12-14T06:56:37.633Z,2.9
2022-12-14T06:57:47.301Z,3.3
2022-12-14T06:58:54.974Z,2.6
2022-12-14T07:00:04.647Z,1.6
2022-12-14T07:01:23.256Z,2.7
2022-12-14T07:02:33.242Z,3.4
2022-12-14T07:03:42.327Z,2.4
2022-12-14T07:04:52.121Z,2.6
2022-12-14T07:06:00.877Z,2.6
2022-12-14T07:07:09.609Z,3
2022-12-14T07:08:19.285Z,2.7
2022-12-14T07:09:27.122Z,2.8
2022-12-14T07:10:36.791Z,3.1
2022-12-14T07:11:46.467Z,3
2022-12-14T07:12:54.194Z,2.8
2022-12-14T07:14:03.882Z,2.7
2022-12-14T07:15:12.546Z,2.9
2022-12-14T07:16:21.344Z,3.4
2022-12-14T07:17:30.965Z,2.6
2022-12-14T07:18:38.669Z,3
2022-12-14T07:19:49.076Z,2.6
2022-12-14T07:20:58.059Z,2.7
2022-12-14T07:22:07.747Z,2.6
2022-12-14T07:23:17.483Z,2.3
2022-12-14T07:24:24.331Z,2.7
2022-12-14T07:25:34.019Z,3
2022-12-14T07:26:43.753Z,2.3
2022-12-14T07:27:51.491Z,3.2
2022-12-14T07:29:01.272Z,3.2
2022-12-14T07:30:10.124Z,3
2022-12-14T07:31:17.857Z,2.6
2022-12-14T07:32:27.644Z,2.9
2022-12-14T07:33:37.345Z,3.1
2022-12-14T07:34:46.264Z,2.9
2022-12-14T07:35:56.213Z,2.5
2022-12-14T07:37:04.004Z,2.5
2022-12-14T07:38:13.833Z,2.2
2022-12-14T07:39:22.611Z,3
2022-12-14T07:40:31.289Z,2.8
2022-12-14T07:41:41.076Z,3.2
2022-12-14T07:42:50.110Z,2.6
2022-12-14T07:43:59.723Z,2.8
2022-12-14T07:45:08.474Z,2.7
2022-12-14T07:46:17.455Z,2.5
2022-12-14T07:47:27.192Z,2.9
2022-12-14T07:48:35.001Z,2.5
2022-12-14T07:49:44.887Z,2.9
2022-12-14T07:50:53.577Z,3.8
2022-12-14T07:52:03.310Z,3.4
2022-12-14T07:53:13.116Z,3
2022-12-14T07:54:23.044Z,3.8
2022-12-14T07:55:31.913Z,3.6
2022-12-14T07:56:41.965Z,2.9
2022-12-14T07:57:50.908Z,2.9
2022-12-14T07:59:00.764Z,3
2022-12-14T08:00:09.489Z,2.8
2022-12-14T08:01:18.476Z,2.9
2022-12-14T08:02:27.303Z,3
2022-12-14T08:03:36.087Z,2.5
2022-12-14T08:04:44.857Z,2.5
2022-12-14T08:05:54.728Z,3.1
2022-12-14T08:07:03.709Z,2.8
2022-12-14T08:08:13.479Z,2.7
2022-12-14T08:09:23.203Z,2.7
2022-12-14T08:10:37.140Z,3.4
2022-12-14T08:11:43.908Z,3.3
2022-12-14T08:12:51.724Z,3.5
2022-12-14T08:14:00.950Z,2.9
2022-12-14T08:15:10.659Z,2.8
2022-12-14T08:16:19.477Z,2.6
2022-12-14T08:17:29.206Z,3.2
2022-12-14T08:18:38.057Z,2.7
2022-12-14T08:19:47.076Z,2.6
2022-12-14T08:20:56.937Z,3.4
2022-12-14T08:22:05.764Z,2.5
2022-12-14T08:23:14.616Z,2.5
2022-12-14T08:24:24.425Z,2.9
2022-12-14T08:25:33.251Z,2.2
2022-12-14T08:26:42.998Z,3.3
2022-12-14T08:27:51.818Z,2.9
2022-12-14T08:29:00.668Z,3.5
2022-12-14T08:30:10.355Z,2.8
2022-12-14T08:31:20.422Z,3.3
2022-12-14T08:32:34.215Z,2.8
2022-12-14T08:33:40.065Z,3.4
2022-12-14T08:34:50.063Z,3.3
2022-12-14T08:36:00.054Z,2.4
2022-12-14T08:37:09.994Z,2.9
2022-12-14T08:38:18.990Z,3
2022-12-14T08:39:28.789Z,2.6
2022-12-14T08:40:37.551Z,3.1
2022-12-14T08:41:47.356Z,2.5
2022-12-14T08:42:57.174Z,2.8
2022-12-14T08:44:06.171Z,2.8
2022-12-14T08:45:16.058Z,2.1
2022-12-14T08:46:25.920Z,3.1
2022-12-14T08:47:35.577Z,2.8
2022-12-14T08:48:45.587Z,3.1
2022-12-14T08:49:53.400Z,2.5
2022-12-14T08:51:02.309Z,3.7
2022-12-14T08:52:12.095Z,3
2022-12-14T08:53:20.012Z,3.6
2022-12-14T08:54:29.778Z,2.7
2022-12-14T08:55:39.664Z,2.8
2022-12-14T08:56:49.128Z,2.9
2022-12-14T08:57:58.412Z,2.8
2022-12-14T08:59:08.175Z,2.8
2022-12-14T09:00:16.925Z,3.4
2022-12-14T09:01:31.979Z,2.7
2022-12-14T09:02:35.461Z,2.9
2022-12-14T09:03:45.137Z,2.2
2022-12-14T09:04:53.852Z,2
2022-12-14T09:06:01.592Z,3.1
2022-12-14T09:07:11.400Z,3.3
2022-12-14T09:08:19.550Z,2.7
2022-12-14T09:09:29.272Z,2.7
2022-12-14T09:10:39.176Z,2.9
2022-12-14T09:11:46.986Z,2.5
2022-12-14T09:12:56.728Z,3.1
2022-12-14T09:14:06.180Z,3.3
2022-12-14T09:15:15.174Z,2.9
2022-12-14T09:16:25.207Z,2.4
2022-12-14T09:17:34.112Z,3.1
2022-12-14T09:18:42.832Z,3.5
2022-12-14T09:19:52.812Z,2.9
2022-12-14T09:21:02.703Z,3
2022-12-14T09:22:12.658Z,3.5
2022-12-14T09:23:22.523Z,2.9
2022-12-14T09:24:30.379Z,2.8
2022-12-14T09:25:39.271Z,3.5
2022-12-14T09:26:47.659Z,2.9
2022-12-14T09:27:58.186Z,2.6
2022-12-14T09:29:09.133Z,2.8
2022-12-14T09:30:21.774Z,2.6
2022-12-14T09:31:29.093Z,3.2
2022-12-14T09:32:38.346Z,3.1
2022-12-14T09:33:47.163Z,3.2
2022-12-14T09:34:57.307Z,3.6
2022-12-14T09:36:05.173Z,3.4
2022-12-14T09:37:13.051Z,2.6
2022-12-14T09:38:23.041Z,3.1
2022-12-14T09:39:32.945Z,3.4
2022-12-14T09:40:42.911Z,3.6
2022-12-14T09:41:57.827Z,3.4
2022-12-14T09:43:04.840Z,2.8
2022-12-14T09:44:18.075Z,3.1
2022-12-14T09:45:23.529Z,3.2
2022-12-14T09:46:33.266Z,3
2022-12-14T09:47:42.150Z,3.6
2022-12-14T09:48:52.290Z,3.3
2022-12-14T09:50:02.225Z,3.9
2022-12-14T09:51:11.995Z,3
2022-12-14T09:52:21.764Z,2.9
2022-12-14T09:53:30.761Z,3.9
2022-12-14T09:54:38.301Z,4.3
2022-12-14T09:55:48.098Z,3.7
2022-12-14T09:56:56.756Z,3.5
2022-12-14T09:58:05.452Z,2.6
2022-12-14T09:59:14.167Z,3.1
2022-12-14T10:00:21.923Z,3.7
2022-12-14T10:01:31.742Z,2.9
2022-12-14T10:02:40.477Z,2.3
2022-12-14T10:03:51.190Z,3.1
2022-12-14T10:05:00.788Z,3.1
2022-12-14T10:06:09.549Z,2.9
2022-12-14T10:07:18.266Z,2.6
2022-12-14T10:08:28.307Z,3.1
2022-12-14T10:09:37.626Z,3
2022-12-14T10:10:47.362Z,2.6
2022-12-14T10:11:57.102Z,2.9
2022-12-14T10:13:05.807Z,2.2
2022-12-14T10:14:15.506Z,2.6
2022-12-14T10:15:24.269Z,2.3
2022-12-14T10:16:33.995Z,2.9
2022-12-14T10:17:43.775Z,2.3
2022-12-14T10:19:02.309Z,2.9
2022-12-14T10:20:04.162Z,2.5
2022-12-14T10:21:12.872Z,2.7
2022-12-14T10:22:22.602Z,2.8
2022-12-14T10:23:32.430Z,2.5
2022-12-14T10:24:42.166Z,3.1
2022-12-14T10:25:50.856Z,3.7
2022-12-14T10:27:00.540Z,3.2
2022-12-14T10:28:11.692Z,3
2022-12-14T10:29:20.992Z,3.5
2022-12-14T10:30:29.789Z,3.2
2022-12-14T10:31:37.520Z,2.5
2022-12-14T10:32:47.227Z,2.8
2022-12-14T10:33:57.930Z,3
2022-12-14T10:35:07.754Z,3.6
2022-12-14T10:36:17.436Z,3.1
2022-12-14T10:37:26.140Z,2.8
2022-12-14T10:38:35.873Z,3.5
2022-12-14T10:39:49.229Z,3.4
2022-12-14T10:40:54.387Z,3
2022-12-14T10:42:04.141Z,3.4
2022-12-14T10:43:13.913Z,4
2022-12-14T10:44:22.618Z,3.9
2022-12-14T10:45:41.006Z,4.5
2022-12-14T10:46:42.077Z,4.2
2022-12-14T10:47:51.624Z,4.1
2022-12-14T10:49:00.276Z,3.4
2022-12-14T10:50:08.018Z,4.2
2022-12-14T10:51:17.715Z,3.2
2022-12-14T10:52:26.544Z,3.2
2022-12-14T10:53:40.543Z,3.2
2022-12-14T10:54:45.968Z,3
2022-12-14T10:55:55.733Z,3.2
2022-12-14T10:57:05.441Z,3.1
2022-12-14T10:58:14.158Z,4
2022-12-14T10:59:22.827Z,2.8
2022-12-14T11:00:32.507Z,3.5
2022-12-14T11:01:41.353Z,4
2022-12-14T11:02:51.027Z,3.3
2022-12-14T11:04:00.751Z,3
2022-12-14T11:05:08.535Z,2.5
2022-12-14T11:06:18.236Z,2.4
2022-12-14T11:07:26.909Z,3.5
2022-12-14T11:08:34.601Z,2.6
2022-12-14T11:09:44.369Z,3.4
2022-12-14T11:10:53.071Z,2
2022-12-14T11:12:01.874Z,2.5
2022-12-14T11:13:11.719Z,3.6
2022-12-14T11:14:20.413Z,3.1
2022-12-14T11:15:30.115Z,2.8
2022-12-14T11:16:40.093Z,2.6
2022-12-14T11:17:47.815Z,3.5
2022-12-14T11:18:57.402Z,2.8
2022-12-14T11:20:06.138Z,3.1
2022-12-14T11:21:14.914Z,2.8
2022-12-14T11:22:24.584Z,3.9
2022-12-14T11:23:33.276Z,3.3
2022-12-14T11:24:42.972Z,2.5
2022-12-14T11:25:52.707Z,3.1
2022-12-14T11:27:00.397Z,3.5
2022-12-14T11:28:10.088Z,3.1
2022-12-14T11:29:17.773Z,2.9
2022-12-14T11:30:27.499Z,3.3
2022-12-14T11:31:37.198Z,3.2
2022-12-14T11:32:46.879Z,3.7
2022-12-14T11:33:56.560Z,3.3
2022-12-14T11:35:06.280Z,3.7
2022-12-14T11:36:14.952Z,3.2
2022-12-14T11:37:24.650Z,3.7
2022-12-14T11:38:33.577Z,3.2
2022-12-14T11:39:43.009Z,3.1
2022-12-14T11:40:50.664Z,3.6
2022-12-14T11:41:59.377Z,3.7
2022-12-14T11:43:09.073Z,3.6
2022-12-14T11:44:18.799Z,3.9
2022-12-14T11:45:28.482Z,3
2022-12-14T11:46:41.197Z,3.4
2022-12-14T11:47:46.924Z,2.9
2022-12-14T11:48:56.625Z,3.5
2022-12-14T11:50:05.338Z,3.3
2022-12-14T11:51:14.033Z,3.4
2022-12-14T11:52:23.727Z,3.3
2022-12-14T11:53:32.488Z,3.2
2022-12-14T11:54:42.210Z,2.7
2022-12-14T11:55:50.939Z,4
2022-12-14T11:56:59.616Z,3.6
2022-12-14T11:58:09.310Z,2.8
2022-12-14T11:59:18.982Z,3.4
2022-12-14T12:00:28.667Z,3.6
2022-12-14T12:01:40.237Z,3
2022-12-14T12:02:49.933Z,3.9
2022-12-14T12:03:58.693Z,3.3
2022-12-14T12:05:07.255Z,3.4
2022-12-14T12:06:14.906Z,3.1
2022-12-14T12:07:24.698Z,2.9
2022-12-14T12:08:33.124Z,2.9
2022-12-14T12:09:42.035Z,3
2022-12-14T12:10:51.703Z,2.7
2022-12-14T12:11:59.433Z,2.7
2022-12-14T12:13:08.146Z,3.3
2022-12-14T12:14:16.806Z,3.5
2022-12-14T12:15:25.573Z,2.8
2022-12-14T12:16:35.187Z,3
2022-12-14T12:17:43.895Z,3
2022-12-14T12:18:53.574Z,2.6
2022-12-14T12:20:03.383Z,2.5
2022-12-14T12:21:11.057Z,2.8
2022-12-14T12:22:20.746Z,2.7
2022-12-14T12:23:30.732Z,2.9
2022-12-14T12:24:55.347Z,2.9
2022-12-14T12:25:50.847Z,3.7
2022-12-14T12:26:58.483Z,2.9
2022-12-14T12:28:07.176Z,3.9
2022-12-14T12:29:16.873Z,2.9
2022-12-14T12:30:26.646Z,3.2
2022-12-14T12:31:36.355Z,3
2022-12-14T12:32:45.022Z,3.1
2022-12-14T12:33:53.655Z,3.2
2022-12-14T12:35:11.265Z,2.9
2022-12-14T12:36:12.266Z,2.9
2022-12-14T12:37:26.951Z,2.9
2022-12-14T12:38:33.068Z,2.9
2022-12-14T12:39:40.428Z,2.6
2022-12-14T12:40:50.139Z,2.7
2022-12-14T12:42:03.532Z,3.3
2022-12-14T12:43:08.551Z,3.5
2022-12-14T12:44:18.228Z,3.4
2022-12-14T12:45:26.222Z,2.9
2022-12-14T12:46:43.912Z,3.1
2022-12-14T12:47:47.434Z,3.2
2022-12-14T12:48:55.223Z,3.4
2022-12-14T12:50:04.890Z,3.1
2022-12-14T12:51:14.555Z,2.8
2022-12-14T12:52:22.203Z,3.5
2022-12-14T12:53:31.896Z,3.5
2022-12-14T12:54:40.565Z,3.2
2022-12-14T12:55:50.251Z,2.9
2022-12-14T12:56:59.940Z,3.6
2022-12-14T12:58:07.599Z,3.2
2022-12-14T12:59:17.398Z,2.8
2022-12-14T13:00:26.134Z,3.6
2022-12-14T13:01:33.904Z,2.9
2022-12-14T13:02:43.672Z,3.2
2022-12-14T13:03:52.248Z,2.8
2022-12-14T13:05:16.486Z,3.2
2022-12-14T13:06:12.607Z,3.2
2022-12-14T13:07:21.284Z,3.4
2022-12-14T13:08:31.444Z,3.2
2022-12-14T13:09:40.753Z,3.9
2022-12-14T13:12:01.177Z,3.6
2022-12-14T13:13:09.856Z,4
2022-12-14T13:14:18.520Z,3.5
2022-12-14T13:15:28.193Z,3.2
2022-12-14T13:16:38.017Z,3.6
2022-12-14T13:17:49.438Z,3.3
2022-12-14T13:19:04.723Z,3.2
2022-12-14T13:20:06.901Z,2.9
2022-12-14T13:21:16.593Z,2.9
2022-12-14T13:22:24.284Z,3.1
2022-12-14T13:23:44.609Z,3
2022-12-14T13:24:44.636Z,2.9
2022-12-14T13:25:52.305Z,3.7
2022-12-14T13:27:01.970Z,3.2
2022-12-14T13:28:10.674Z,2.7
2022-12-14T13:29:18.415Z,3.5
2022-12-14T13:30:28.111Z,2.9
2022-12-14T13:31:36.871Z,3.2
2022-12-14T13:32:45.495Z,3.2
2022-12-14T13:33:55.210Z,2.8
2022-12-14T13:35:04.010Z,2.8
2022-12-14T13:36:13.699Z,3
2022-12-14T13:37:23.406Z,2.8
2022-12-14T13:38:33.803Z,3.3
2022-12-14T13:39:42.830Z,3.5
2022-12-14T13:40:51.515Z,3.1
2022-12-14T13:42:00.223Z,3.4
2022-12-14T13:43:07.895Z,3.1
2022-12-14T13:44:16.588Z,2.4
2022-12-14T13:45:26.327Z,3.4
2022-12-14T13:46:35.079Z,3.5
2022-12-14T13:47:44.840Z,3.3
2022-12-14T13:48:53.418Z,3
2022-12-14T13:51:13.866Z,3
2022-12-14T13:52:21.544Z,2.8
2022-12-14T13:53:31.233Z,2.9
2022-12-14T13:54:40.929Z,3
2022-12-14T13:55:49.603Z,2.7
2022-12-14T13:56:59.342Z,3.4
2022-12-14T13:58:09.000Z,3.3
2022-12-14T13:59:16.696Z,3.8
2022-12-14T14:00:26.342Z,3.4
2022-12-14T14:01:36.046Z,3.7
2022-12-14T14:02:44.779Z,3.5
2022-12-14T14:03:54.593Z,3.4
2022-12-14T14:05:03.087Z,3.3
2022-12-14T14:06:12.741Z,3.3
2022-12-14T14:07:21.399Z,3.8
2022-12-14T14:08:34.788Z,3.6
2022-12-14T14:09:41.819Z,3.6
2022-12-14T14:10:54.139Z,3.3
2022-12-14T14:12:01.164Z,3.9
2022-12-14T14:13:10.842Z,3.3
2022-12-14T14:14:18.577Z,3.3
2022-12-14T14:15:28.292Z,3.7
2022-12-14T14:16:37.131Z,2.9
2022-12-14T14:17:44.813Z,3.3
2022-12-14T14:18:54.527Z,3.2
2022-12-14T14:20:04.357Z,3.1
2022-12-14T14:21:14.118Z,3.8
2022-12-14T14:22:25.071Z,2.5
2022-12-14T14:23:33.523Z,3.1
2022-12-14T14:24:43.185Z,2.9
2022-12-14T14:25:52.950Z,3.2
2022-12-14T14:27:00.597Z,3.2
2022-12-14T14:28:10.317Z,3.7
2022-12-14T14:29:18.083Z,3.1
2022-12-14T14:30:27.799Z,3.8
2022-12-14T14:31:37.589Z,4
2022-12-14T14:32:45.224Z,3.7
2022-12-14T14:33:54.946Z,3.6
2022-12-14T14:35:04.626Z,3.8
2022-12-14T14:36:14.334Z,4.7
2022-12-14T14:37:24.093Z,3.6
2022-12-14T14:38:34.481Z,4.1
2022-12-14T14:39:56.829Z,3.6
2022-12-14T14:42:04.028Z,3.7
2022-12-14T14:43:13.775Z,3.4
2022-12-14T14:44:23.612Z,3.3
2022-12-14T14:45:31.276Z,3.5
2022-12-14T14:46:41.089Z,3.6
2022-12-14T14:47:50.667Z,4
2022-12-14T14:49:00.353Z,3.6
2022-12-14T14:50:10.250Z,3.7
2022-12-14T14:51:17.965Z,3.8
2022-12-14T14:52:27.632Z,3.8
2022-12-14T14:53:36.324Z,4.2
2022-12-14T14:55:16.112Z,4.2
2022-12-14T14:55:56.607Z,4.9
2022-12-14T14:57:05.332Z,4.2
2022-12-14T14:58:18.771Z,4.4
2022-12-14T14:59:24.775Z,4.4
2022-12-14T15:00:34.573Z,4.4
2022-12-14T15:01:44.444Z,3.9
2022-12-14T15:02:53.164Z,4.5
2022-12-14T15:04:01.942Z,4.4
2022-12-14T15:05:40.783Z,4.6
2022-12-14T15:06:22.324Z,4.1
2022-12-14T15:07:32.141Z,4.4
2022-12-14T15:08:41.902Z,4.6
2022-12-14T15:09:51.677Z,4.3
2022-12-14T15:11:01.387Z,4.3
2022-12-14T15:12:10.121Z,4
2022-12-14T15:13:17.800Z,4
2022-12-14T15:14:28.491Z,4.6
2022-12-14T15:15:37.265Z,4.3
2022-12-14T15:16:46.090Z,4.2
2022-12-14T15:17:55.795Z,3.4
2022-12-14T15:19:03.588Z,3.8
2022-12-14T15:20:17.097Z,3.6
2022-12-14T15:21:21.932Z,4
2022-12-14T15:22:31.602Z,3.9
2022-12-14T15:23:41.419Z,4.4
2022-12-14T15:24:50.082Z,4
2022-12-14T15:25:59.796Z,3.8
2022-12-14T15:27:09.494Z,4.1
2022-12-14T15:28:19.280Z,4.6
2022-12-14T15:29:28.991Z,3.7
2022-12-14T15:30:37.660Z,4
2022-12-14T15:31:45.449Z,4
2022-12-14T15:32:55.071Z,4.3
2022-12-14T15:34:02.740Z,4.8
2022-12-14T15:35:12.446Z,4.7
2022-12-14T15:36:21.110Z,4.2
2022-12-14T15:37:29.774Z,4.8
2022-12-14T15:38:39.433Z,4.1
2022-12-14T15:39:49.123Z,4.1
2022-12-14T15:40:58.845Z,4.9
2022-12-14T15:42:08.547Z,4.9
2022-12-14T15:43:16.238Z,4.6
2022-12-14T15:44:26.980Z,4.4
2022-12-14T15:45:35.629Z,4.9
2022-12-14T15:46:44.368Z,5.3
2022-12-14T15:47:54.117Z,4.4
2022-12-14T15:49:02.772Z,5.3
2022-12-14T15:50:12.420Z,4.2
2022-12-14T15:51:22.158Z,4.6
2022-12-14T15:52:29.826Z,4.9
2022-12-14T15:53:39.524Z,5.7
2022-12-14T15:54:48.226Z,4.8
2022-12-14T15:56:02.031Z,4.7
2022-12-14T15:57:07.577Z,4.1
2022-12-14T15:58:16.271Z,4.9
2022-12-14T15:59:26.063Z,4.2
2022-12-14T16:00:36.032Z,5.2
2022-12-14T16:01:51.866Z,4.8
2022-12-14T16:02:55.513Z,4.1